Latest Weather Observations for Mount Moornapa

IDV60801

Issued at 8:02 pm EST Thursday 29 September 2016 (issued every 30 minutes, with the page automatically refreshed every 10 minutes)

About weather observations | Map of weather stations | Latest weather observations for VIC | Other Formats
Station Details ID: 085296 Name: MOUNT MOORNAPA Lat: -37.75 Lon: 147.14 Height: 480.0 m
Data from the previous 72 hours. | See also: Recent months at Mount Moornapa
Date/Time
EST
Temp
°C
App
Temp
°C
Dew
Point
°C
Rel
Hum
%
Delta-T
°C
Wind Press
QNH
hPa
Press
MSL
hPa
Rain since
9am
mm
Dir  Spd
km/h
Gust
km/h
Spd
kts
Gust
kts
29/08:00pm 6.8 3.2 3.2 78 1.6 NNW 11 17 6 9 - - 3.2
29/07:30pm 7.3 3.7 3.2 75 1.8 NNW 11 20 6 11 - - 3.2
29/07:00pm 8.2 4.6 3.1 70 2.2 NNW 11 24 6 13 - - 3.2
29/06:30pm 9.0 5.4 3.0 66 2.6 NNW 11 19 6 10 - - 3.2
29/06:00pm 8.9 5.9 4.1 72 2.2 NNW 9 19 5 10 - - 3.2
29/05:30pm 9.4 6.4 4.0 69 2.4 NNW 9 20 5 11 - - 3.2
29/05:00pm 11.3 8.3 4.1 61 3.3 NW 9 26 5 14 - - 3.2
29/04:30pm 11.7 8.6 3.5 57 3.7 NNW 9 22 5 12 - - 3.2
29/04:00pm 12.9 9.1 3.8 54 4.2 NNW 13 26 7 14 - - 3.2
29/03:30pm 13.5 9.7 4.1 53 4.4 NNW 13 26 7 14 - - 3.2
29/03:00pm 15.3 12.6 3.5 45 5.5 NW 7 24 4 13 - - 3.2
29/02:30pm 14.2 11.8 4.5 52 4.6 WNW 6 17 3 9 - - 3.2
29/02:00pm 14.5 12.9 6.3 58 4.1 WNW 4 11 2 6 - - 3.2
29/01:30pm 14.3 12.4 7.4 63 3.5 W 7 13 4 7 - - 3.2
29/01:00pm 14.5 13.2 7.5 63 3.5 W 4 9 2 5 - - 3.2
29/12:30pm 13.6 11.4 7.8 68 2.9 NW 9 30 5 16 - - 3.2
29/12:00pm 11.6 8.7 8.1 79 1.8 NW 13 30 7 16 - - 3.2
29/11:30am 11.1 9.3 9.5 90 0.8 NNW 9 20 5 11 - - 3.2
29/11:00am 10.7 8.0 7.4 80 1.6 NNW 11 20 6 11 - - 3.2
29/10:30am 10.9 9.0 10.6 98 0.2 NNW 11 22 6 12 - - 3.2
29/10:00am 10.2 8.1 9.6 96 0.3 NNW 11 19 6 10 - - 3.2
29/09:30am 12.5 11.8 10.0 85 1.3 WNW 4 11 2 6 - - 0.0
29/09:00am 13.9 13.4 9.5 75 2.3 NE 2 9 1 5 - - 0.2
29/08:30am 13.3 11.9 8.8 74 2.3 NNE 6 17 3 9 - - 0.2
29/08:00am 12.6 11.6 8.9 78 1.9 ENE 4 15 2 8 - - 0.2
29/07:30am 11.0 9.9 8.4 84 1.3 NE 4 13 2 7 - - 0.2
29/07:00am 11.8 9.9 6.9 72 2.4 N 6 11 3 6 - - 0.2
29/06:30am 12.2 10.0 6.3 67 2.9 N 7 17 4 9 - - 0.2
29/06:00am 12.2 9.5 5.8 65 3.1 E 9 24 5 13 - - 0.2
29/05:30am 12.1 9.3 5.3 63 3.2 E 9 17 5 9 - - 0.2
29/05:00am 12.2 9.7 4.7 60 3.5 E 7 17 4 9 - - 0.2
29/04:30am 12.1 9.6 4.6 60 3.5 E 7 17 4 9 - - 0.2
29/04:00am 12.6 10.4 3.6 54 4.1 NE 4 9 2 5 - - 0.2
29/03:30am 12.2 9.4 3.4 55 4.0 E 7 15 4 8 - - 0.2
29/03:00am 12.5 9.7 3.2 53 4.2 ENE 7 20 4 11 - - 0.2
29/02:30am 13.2 10.2 2.1 47 5.0 E 7 20 4 11 - - 0.2
29/02:00am 13.1 9.0 2.1 47 4.9 NNW 13 28 7 15 - - 0.2
29/01:30am 13.1 8.3 2.4 48 4.8 NNW 17 32 9 17 - - 0.2
29/01:00am 13.0 7.7 2.8 50 4.6 NNW 20 37 11 20 - - 0.2
29/12:30am 12.4 7.7 3.4 54 4.1 NNW 17 28 9 15 - - 0.2
29/12:00am 12.6 9.1 3.3 53 4.2 NNW 11 19 6 10 - - 0.2
 
Date/Time
EST
Temp
°C
App
Temp
°C
Dew
Point
°C
Rel
Hum
%
Delta-T
°C
Wind Press
QNH
hPa
Press
MSL
hPa
Rain since
9am
mm
Dir  Spd
km/h
Gust
km/h
Spd
kts
Gust
kts
28/11:30pm 13.0 10.3 3.7 53 4.3 N 7 15 4 8 - - 0.2
28/11:00pm 12.7 9.8 4.4 57 3.9 NE 9 20 5 11 - - 0.2
28/10:30pm 12.8 10.3 4.8 58 3.8 NNW 7 19 4 10 - - 0.2
28/10:00pm 12.6 9.9 5.5 62 3.4 N 9 24 5 13 - - 0.2
28/09:30pm 12.0 9.9 6.7 70 2.6 NNE 7 11 4 6 - - 0.2
28/09:00pm 12.2 10.3 7.5 73 2.3 NE 7 11 4 6 - - 0.2
28/08:30pm 11.3 9.6 7.4 77 1.9 NNE 6 11 3 6 - - 0.2
28/08:00pm 11.6 9.9 7.5 76 2.0 ENE 6 19 3 10 - - 0.2
28/07:30pm 11.2 9.0 7.7 79 1.7 E 9 19 5 10 - - 0.2
28/07:00pm 11.0 8.4 7.7 80 1.6 E 11 19 6 10 - - 0.2
28/06:30pm 10.6 8.0 7.8 83 1.4 E 11 20 6 11 - - 0.2
28/06:00pm 10.4 8.7 7.5 82 1.4 E 6 13 3 7 - - 0.2
28/05:30pm 11.0 9.1 7.7 80 1.6 ESE 7 15 4 8 - - 0.2
28/05:00pm 11.7 9.4 7.6 76 2.0 ESE 9 20 5 11 - - 0.2
28/04:30pm 12.4 9.3 7.3 71 2.5 ESE 13 26 7 14 - - 0.2
28/04:00pm 13.5 10.9 7.7 68 2.9 ESE 11 24 6 13 - - 0.2
28/03:30pm 14.9 12.4 8.2 64 3.5 ESE 11 24 6 13 - - 0.2
28/03:00pm 16.4 14.3 8.4 59 4.2 ESE 9 26 5 14 - - 0.2
28/02:30pm 17.1 15.2 7.7 54 4.9 E 7 19 4 10 - - 0.2
28/02:00pm 17.3 15.5 7.1 51 5.2 ESE 6 15 3 8 - - 0.2
28/01:30pm 17.1 15.7 7.2 52 5.1 E 4 15 2 8 - - 0.2
28/01:00pm 16.6 14.9 6.1 50 5.2 ESE 4 6 2 3 - - 0.2
28/12:30pm 16.6 15.0 6.4 51 5.1 E 4 7 2 4 - - 0.2
28/12:00pm 15.7 13.3 4.1 46 5.5 NE 6 9 3 5 - - 0.2
28/11:30am 15.8 13.7 6.0 52 4.9 NNE 6 9 3 5 - - 0.2
28/11:00am 15.4 14.1 5.9 53 4.7 E 2 7 1 4 - - 0.2
28/10:30am 13.9 12.1 3.7 50 4.7 SSE 2 6 1 3 - - 0.0
28/10:00am 13.2 10.9 2.7 49 4.8 SSE 4 9 2 5 - - 0.0
28/09:30am 14.0 13.1 6.1 59 3.9 CALM 0 2 0 1 - - 0.0
28/09:00am 11.8 9.7 5.7 66 2.9 NE 6 11 3 6 - - 0.2
28/08:30am 10.7 8.5 5.3 69 2.5 NNE 6 9 3 5 - - 0.2
28/08:00am 9.5 7.0 4.7 72 2.2 N 7 15 4 8 - - 0.2
28/07:30am 7.9 5.0 4.5 79 1.5 N 9 13 5 7 - - 0.2
28/07:00am 8.1 4.7 4.1 76 1.8 N 11 15 6 8 - - 0.2
28/06:30am 6.9 3.1 4.0 82 1.3 N 13 19 7 10 - - 0.2
28/06:00am 7.1 3.4 4.4 83 1.2 N 13 17 7 9 - - 0.2
28/05:30am 6.6 2.5 4.3 85 1.0 N 15 19 8 10 - - 0.2
28/05:00am 6.7 2.6 4.5 86 1.0 N 15 19 8 10 - - 0.2
28/04:30am 6.9 2.9 4.7 86 1.0 N 15 19 8 10 - - 0.2
28/04:00am 6.9 3.2 4.7 86 1.0 N 13 19 7 10 - - 0.2
28/03:30am 7.2 4.7 4.9 85 1.0 NNW 7 13 4 7 - - 0.2
28/03:00am 6.7 4.2 5.0 89 0.8 NW 7 15 4 8 - - 0.2
28/02:30am 7.0 4.7 5.5 90 0.7 NNW 7 9 4 5 - - 0.2
28/02:00am 7.1 4.7 5.4 89 0.8 NW 7 9 4 5 - - 0.2
28/01:30am 7.2 4.9 5.7 90 0.7 NW 7 11 4 6 - - 0.2
28/01:00am 7.2 5.0 6.0 92 0.6 NW 7 9 4 5 - - 0.2
28/12:30am 7.0 4.8 6.1 94 0.4 NW 7 9 4 5 - - 0.2
28/12:00am 7.3 5.4 6.6 95 0.3 NW 6 7 3 4 - - 0.2
 
Date/Time
EST
Temp
°C
App
Temp
°C
Dew
Point
°C
Rel
Hum
%
Delta-T
°C
Wind Press
QNH
hPa
Press
MSL
hPa
Rain since
9am
mm
Dir  Spd
km/h
Gust
km/h
Spd
kts
Gust
kts
27/11:30pm 7.3 5.3 7.0 98 0.1 NNW 7 7 4 4 - - 0.2
27/11:00pm 7.4 5.5 6.8 96 0.3 WNW 6 13 3 7 - - 0.2
27/10:30pm 7.7 6.3 7.4 98 0.1 WNW 4 6 2 3 - - 0.2
27/10:00pm 7.6 6.2 7.2 97 0.2 W 4 6 2 3 - - 0.2
27/09:30pm 7.7 6.3 7.3 97 0.2 SSW 4 7 2 4 - - 0.2
27/09:00pm 7.8 5.9 7.5 98 0.1 SW 7 17 4 9 - - 0.0
27/08:30pm 7.9 6.6 7.6 98 0.1 SSW 4 11 2 6 - - 0.0
27/08:00pm 8.2 6.2 7.3 94 0.4 SSW 7 19 4 10 - - 0.0
27/07:30pm 8.8 6.9 6.8 87 1.0 SSW 6 19 3 10 - - 0.0
27/07:00pm 9.4 7.8 6.3 81 1.5 S 4 9 2 5 - - 0.0
27/06:30pm 9.5 8.2 5.9 78 1.7 SW 2 7 1 4 - - 0.0
27/06:00pm 9.8 8.1 5.8 76 1.9 S 4 7 2 4 - - 0.0
27/05:30pm 10.0 8.7 6.0 76 1.9 S 2 6 1 3 - - 0.0
27/05:00pm 10.8 9.0 5.3 69 2.6 SSW 4 11 2 6 - - 0.0
27/04:30pm 12.0 10.4 6.3 68 2.8 S 4 11 2 6 - - 0.0
27/04:00pm 12.5 10.2 5.0 60 3.6 SW 6 19 3 10 - - 0.0
27/03:30pm 11.7 9.4 5.8 67 2.8 SSW 7 17 4 9 - - 0.0
27/03:00pm 12.3 10.3 6.4 67 2.9 S 6 17 3 9 - - 0.0
27/02:30pm 11.5 9.3 6.0 69 2.6 S 7 15 4 8 - - 0.0
27/02:00pm 12.3 10.3 6.1 66 3.0 SSW 6 13 3 7 - - 0.0
27/01:30pm 13.4 11.3 5.6 59 3.8 SSW 6 13 3 7 - - 0.0
27/01:00pm 13.6 11.4 5.5 58 3.9 SSW 6 17 3 9 - - 0.0
27/12:30pm 12.4 10.5 5.1 61 3.5 SSW 4 9 2 5 - - 0.0
27/12:00pm 11.3 9.0 4.7 64 3.1 SSW 6 17 3 9 - - 0.0
27/11:30am 11.3 9.3 4.5 63 3.2 SW 4 9 2 5 - - 0.0
27/11:00am 9.8 6.7 3.8 66 2.7 WSW 9 20 5 11 - - 0.0
27/10:30am 10.4 6.9 3.7 63 3.0 W 11 19 6 10 - - 0.0
27/10:00am 10.0 7.5 4.8 70 2.4 WSW 7 13 4 7 - - 0.0
27/09:30am 8.5 5.8 3.9 73 2.1 W 7 22 4 12 - - 0.0
27/09:00am 8.8 6.4 5.2 78 1.7 W 7 19 4 10 - - 5.2
27/08:30am 7.5 5.6 5.0 84 1.1 NW 4 9 2 5 - - 5.2
27/08:00am 6.7 4.4 5.0 89 0.8 NW 6 9 3 5 - - 5.2
27/07:30am 5.1 2.5 4.4 95 0.3 WNW 7 19 4 10 - - 5.2
27/07:00am 5.0 2.7 4.6 97 0.2 WNW 6 9 3 5 - - 5.2
27/06:30am 4.9 1.9 4.0 94 0.4 W 9 15 5 8 - - 5.2
27/06:00am 4.4 1.7 3.8 96 0.3 W 7 11 4 6 - - 5.2
27/05:30am 4.3 1.7 4.2 99 0.0 WSW 7 13 4 7 - - 5.2
27/05:00am 4.8 2.3 4.7 99 0.0 NW 7 15 4 8 - - 5.2
27/04:30am 5.5 2.4 5.4 99 0.0 WNW 11 28 6 15 - - 5.2
27/04:00am 6.0 4.3 5.9 99 0.0 WSW 4 6 2 3 - - 5.2
27/03:30am 5.4 3.6 5.3 99 0.0 WNW 4 6 2 3 - - 5.0
27/03:00am 6.0 4.7 5.9 99 0.0 NE 2 9 1 5 - - 5.0
27/02:30am 6.1 4.8 6.0 99 0.0 S 2 6 1 3 - - 4.2
27/02:00am 6.4 4.8 6.3 99 0.0 SSW 4 11 2 6 - - 2.4
27/01:30am 6.7 4.7 6.3 97 0.2 S 6 7 3 4 - - 0.6
27/01:00am 7.4 4.7 5.4 87 0.9 W 9 17 5 9 - - 0.2
27/12:30am 7.9 5.0 4.8 81 1.4 N 9 11 5 6 - - 0.0
27/12:00am 8.2 5.7 5.0 80 1.5 N 7 11 4 6 - - 0.0
 
Date/Time
EST
Temp
°C
App
Temp
°C
Dew
Point
°C
Rel
Hum
%
Delta-T
°C
Wind Press
QNH
hPa
Press
MSL
hPa
Rain since
9am
mm
Dir  Spd
km/h
Gust
km/h
Spd
kts
Gust
kts
26/11:30pm 8.6 6.1 4.6 76 1.8 NNE 7 13 4 7 - - 0.0
26/11:00pm 8.3 5.8 4.5 77 1.7 N 7 11 4 6 - - 0.0
26/10:30pm 8.5 5.9 4.3 75 1.9 NNE 7 11 4 6 - - 0.0
26/10:00pm 8.8 5.9 4.6 75 1.9 N 9 13 5 7 - - 0.0
26/09:30pm 8.8 6.5 4.8 76 1.8 NNE 6 9 3 5 - - 0.0
26/09:00pm 8.6 6.5 5.7 82 1.4 N 6 9 3 5 - - 0.0
26/08:30pm 8.5 6.3 5.4 81 1.4 N 6 9 3 5 - - 0.0

Other Formats:

Comma delimited format used in spreadsheet applications
http://www.bom.gov.au/fwo/IDV60801/IDV60801.95913.axf

JavaScript Object Notation format (JSON) in row-major order
http://www.bom.gov.au/fwo/IDV60801/IDV60801.95913.json